PWSweather.com
Personal Weather Stations
Station Observations
LEONMETEO
LeonES 24008

LeonES 24008

Lat: 42.6055559, Lon: -5.5752249

Elevation: 2690

Station Type: La Crosse WS3600

Latest ConditionsUpdated 10:09:14 PM GMT+01:01 Monday, Oct 20, 2014
Currently Today's Max Today's Min Today's Average
Temperature 61.8°F16.6°C 75.0°F23.9°C 52.3°F11.3°C 60.4°F15.8°C
Dew Point 52.7°F11.5°C 59.5°F15.3°C 47.9°F8.8°C 52.6°F11.4°C
Winds - N16091.8 kmh N Calm Calm - Calm Calm
Wind Gusts -- -- - -
Humidity 72% 85% 58% 76%
Pressure 30.02 in1016.6 mb 30.02 in1016.6 mb 29.96 in1014.6 mb -
Hour Temp Dew Point Humidity Winds Wind Gusts Pressure Precip Precip Rate Daily Precip Total
10:09 PM 61.8°F16.6°C 52.7°F11.5°C 72% - N16091.8 kmh N -- 30.02 in1016.6 mb 0.00 in0.0 mm 0.00 in/hr0.0 mm/hr 0.00 in0.0 mm
10:04 PM 62.0°F16.7°C 52.9°F11.6°C 72% - N16091.8 kmh N -- 30.02 in1016.6 mb 0.00 in0.0 mm 0.00 in/hr0.0 mm/hr 0.00 in0.0 mm
09:59 PM 62.2°F16.8°C 53.0°F11.7°C 72% - N16091.8 kmh N -- 30.02 in1016.6 mb 0.00 in0.0 mm 0.00 in/hr0.0 mm/hr 0.00 in0.0 mm
09:54 PM 62.4°F16.9°C 53.2°F11.8°C 72% - N16091.8 kmh N -- 30.02 in1016.6 mb 0.00 in0.0 mm 0.00 in/hr0.0 mm/hr 0.00 in0.0 mm
09:49 PM 62.4°F16.9°C 53.2°F11.8°C 72% - N16091.8 kmh N -- 30.01 in1016.3 mb 0.00 in0.0 mm 0.00 in/hr0.0 mm/hr 0.00 in0.0 mm
09:44 PM 62.7°F17.1°C 53.2°F11.8°C 71% - N16091.8 kmh N -- 30.01 in1016.3 mb 0.00 in0.0 mm 0.00 in/hr0.0 mm/hr 0.00 in0.0 mm
09:39 PM 63.1°F17.3°C 53.6°F12.0°C 71% - N16091.8 kmh N -- 30.01 in1016.3 mb 0.00 in0.0 mm 0.00 in/hr0.0 mm/hr 0.00 in0.0 mm
09:34 PM 63.3°F17.4°C 53.7°F12.1°C 71% - N16091.8 kmh N -- 30.01 in1016.3 mb 0.00 in0.0 mm 0.00 in/hr0.0 mm/hr 0.00 in0.0 mm
09:29 PM 63.6°F17.6°C 54.1°F12.3°C 71% - N16091.8 kmh N -- 30.01 in1016.3 mb 0.00 in0.0 mm 0.00 in/hr0.0 mm/hr 0.00 in0.0 mm
09:24 PM 63.8°F17.7°C 53.9°F12.2°C 70% - N16091.8 kmh N -- 30.01 in1016.3 mb 0.00 in0.0 mm 0.00 in/hr0.0 mm/hr 0.00 in0.0 mm
09:19 PM 64.0°F17.8°C 54.1°F12.3°C 70% - N16091.8 kmh N -- 30.01 in1016.3 mb 0.00 in0.0 mm 0.00 in/hr0.0 mm/hr 0.00 in0.0 mm
09:14 PM 64.4°F18.0°C 54.5°F12.5°C 70% - N16091.8 kmh N -- 30.01 in1016.3 mb 0.00 in0.0 mm 0.00 in/hr0.0 mm/hr 0.00 in0.0 mm
09:09 PM 64.7°F18.2°C 54.3°F12.4°C 69% - N16091.8 kmh N -- 30.00 in1015.9 mb 0.00 in0.0 mm 0.00 in/hr0.0 mm/hr 0.00 in0.0 mm
09:04 PM 64.9°F18.3°C 54.1°F12.3°C 68% - N16091.8 kmh N -- 30.01 in1016.3 mb 0.00 in0.0 mm 0.00 in/hr0.0 mm/hr 0.00 in0.0 mm
08:59 PM 65.3°F18.5°C 54.0°F12.2°C 68% - N16091.8 kmh N -- 30.01 in1016.3 mb 0.00 in0.0 mm 0.00 in/hr0.0 mm/hr 0.00 in0.0 mm
08:58 PM 65.3°F18.5°C 54.0°F12.2°C 67% - N16091.8 kmh N -- 30.01 in1016.3 mb 0.00 in0.0 mm 0.00 in/hr0.0 mm/hr 0.00 in0.0 mm
08:54 PM 65.6°F18.7°C 54.3°F12.4°C 67% - N16091.8 kmh N -- 30.00 in1015.9 mb 0.00 in0.0 mm 0.00 in/hr0.0 mm/hr 0.00 in0.0 mm
08:53 PM 65.6°F18.7°C 54.3°F12.4°C 67% - N16091.8 kmh N -- 30.00 in1015.9 mb 0.00 in0.0 mm 0.00 in/hr0.0 mm/hr 0.00 in0.0 mm
08:49 PM 65.8°F18.8°C 54.5°F12.5°C 67% - N16091.8 kmh N -- 30.00 in1015.9 mb 0.00 in0.0 mm 0.00 in/hr0.0 mm/hr 0.00 in0.0 mm
08:44 PM 66.3°F19.1°C 54.6°F12.6°C 66% - N16091.8 kmh N -- 30.00 in1015.9 mb 0.00 in0.0 mm 0.00 in/hr0.0 mm/hr 0.00 in0.0 mm
08:39 PM 66.5°F19.2°C 54.8°F12.7°C 66% - N16091.8 kmh N -- 30.00 in1015.9 mb 0.00 in0.0 mm 0.00 in/hr0.0 mm/hr 0.00 in0.0 mm
08:34 PM 66.9°F19.4°C 54.7°F12.6°C 66% - N16091.8 kmh N -- 30.00 in1015.9 mb 0.00 in0.0 mm 0.00 in/hr0.0 mm/hr 0.00 in0.0 mm
08:29 PM 67.1°F19.5°C 54.9°F12.7°C 65% - N16091.8 kmh N -- 30.00 in1015.9 mb 0.00 in0.0 mm 0.00 in/hr0.0 mm/hr 0.00 in0.0 mm
08:24 PM 67.4°F19.7°C 54.8°F12.7°C 64% - N16091.8 kmh N -- 30.00 in1015.9 mb 0.00 in0.0 mm 0.00 in/hr0.0 mm/hr 0.00 in0.0 mm
08:18 PM 67.6°F19.8°C 54.9°F12.7°C 64% - N16091.8 kmh N -- 30.00 in1015.9 mb 0.00 in0.0 mm 0.00 in/hr0.0 mm/hr 0.00 in0.0 mm
08:13 PM 67.8°F19.9°C 55.1°F12.8°C 64% - N16091.8 kmh N -- 30.00 in1015.9 mb 0.00 in0.0 mm 0.00 in/hr0.0 mm/hr 0.00 in0.0 mm
08:08 PM 68.1°F20.1°C 55.5°F13.1°C 64% - N16091.8 kmh N -- 29.99 in1015.6 mb 0.00 in0.0 mm 0.00 in/hr0.0 mm/hr 0.00 in0.0 mm
08:03 PM 68.1°F20.1°C 55.5°F13.1°C 64% - N16091.8 kmh N -- 29.99 in1015.6 mb 0.00 in0.0 mm 0.00 in/hr0.0 mm/hr 0.00 in0.0 mm
07:58 PM 68.3°F20.2°C 55.6°F13.1°C 64% - N16091.8 kmh N -- 30.00 in1015.9 mb 0.00 in0.0 mm 0.00 in/hr0.0 mm/hr 0.00 in0.0 mm
07:53 PM 68.5°F20.3°C 55.8°F13.2°C 64% - N16091.8 kmh N -- 29.99 in1015.6 mb 0.00 in0.0 mm 0.00 in/hr0.0 mm/hr 0.00 in0.0 mm
07:48 PM 68.7°F20.4°C 56.0°F13.3°C 64% - N16091.8 kmh N -- 29.99 in1015.6 mb 0.00 in0.0 mm 0.00 in/hr0.0 mm/hr 0.00 in0.0 mm
07:43 PM 68.9°F20.5°C 56.1°F13.4°C 64% - N16091.8 kmh N -- 29.99 in1015.6 mb 0.00 in0.0 mm 0.00 in/hr0.0 mm/hr 0.00 in0.0 mm
07:38 PM 69.0°F20.6°C 56.3°F13.5°C 64% - N16091.8 kmh N -- 29.99 in1015.6 mb 0.00 in0.0 mm 0.00 in/hr0.0 mm/hr 0.00 in0.0 mm
07:33 PM 69.4°F20.8°C 56.2°F13.4°C 64% - N16091.8 kmh N -- 29.99 in1015.6 mb 0.00 in0.0 mm 0.00 in/hr0.0 mm/hr 0.00 in0.0 mm
07:28 PM 69.4°F20.8°C 56.2°F13.4°C 63% - N16091.8 kmh N -- 29.99 in1015.6 mb 0.00 in0.0 mm 0.00 in/hr0.0 mm/hr 0.00 in0.0 mm
07:23 PM 69.6°F20.9°C 56.4°F13.6°C 63% - N16091.8 kmh N -- 29.99 in1015.6 mb 0.00 in0.0 mm 0.00 in/hr0.0 mm/hr 0.00 in0.0 mm
07:18 PM 69.9°F21.1°C 56.3°F13.5°C 63% - N16091.8 kmh N -- 29.99 in1015.6 mb 0.00 in0.0 mm 0.00 in/hr0.0 mm/hr 0.00 in0.0 mm
07:13 PM 70.1°F21.2°C 56.5°F13.6°C 62% - N16091.8 kmh N -- 29.98 in1015.2 mb 0.00 in0.0 mm 0.00 in/hr0.0 mm/hr 0.00 in0.0 mm
07:08 PM 70.3°F21.3°C 56.7°F13.7°C 62% - N16091.8 kmh N -- 29.99 in1015.6 mb 0.00 in0.0 mm 0.00 in/hr0.0 mm/hr 0.00 in0.0 mm
07:03 PM 70.5°F21.4°C 56.8°F13.8°C 62% - N16091.8 kmh N -- 29.98 in1015.2 mb 0.00 in0.0 mm 0.00 in/hr0.0 mm/hr 0.00 in0.0 mm
06:58 PM 70.7°F21.5°C 57.0°F13.9°C 62% - N16091.8 kmh N -- 29.98 in1015.2 mb 0.00 in0.0 mm 0.00 in/hr0.0 mm/hr 0.00 in0.0 mm
06:53 PM 71.0°F21.7°C 56.9°F13.8°C 61% - N16091.8 kmh N -- 29.98 in1015.2 mb 0.00 in0.0 mm 0.00 in/hr0.0 mm/hr 0.00 in0.0 mm
06:48 PM 71.2°F21.8°C 57.1°F13.9°C 61% - N16091.8 kmh N -- 29.98 in1015.2 mb 0.00 in0.0 mm 0.00 in/hr0.0 mm/hr 0.00 in0.0 mm
06:43 PM 71.4°F21.9°C 57.2°F14.0°C 61% - N16091.8 kmh N -- 29.97 in1014.9 mb 0.00 in0.0 mm 0.00 in/hr0.0 mm/hr 0.00 in0.0 mm
06:38 PM 71.7°F22.1°C 57.6°F14.2°C 61% - N16091.8 kmh N -- 29.97 in1014.9 mb 0.00 in0.0 mm 0.00 in/hr0.0 mm/hr 0.00 in0.0 mm
06:33 PM 71.9°F22.2°C 57.7°F14.3°C 61% - N16091.8 kmh N -- 29.97 in1014.9 mb 0.00 in0.0 mm 0.00 in/hr0.0 mm/hr 0.00 in0.0 mm
06:28 PM 72.3°F22.4°C 58.1°F14.5°C 61% - N16091.8 kmh N -- 29.97 in1014.9 mb 0.00 in0.0 mm 0.00 in/hr0.0 mm/hr 0.00 in0.0 mm
06:23 PM 72.5°F22.5°C 57.8°F14.3°C 60% - N16091.8 kmh N -- 29.97 in1014.9 mb 0.00 in0.0 mm 0.00 in/hr0.0 mm/hr 0.00 in0.0 mm
06:18 PM 72.6°F22.6°C 57.9°F14.4°C 60% - N16091.8 kmh N -- 29.97 in1014.9 mb 0.00 in0.0 mm 0.00 in/hr0.0 mm/hr 0.00 in0.0 mm
06:13 PM 73.0°F22.8°C 58.3°F14.6°C 60% - N16091.8 kmh N -- 29.96 in1014.6 mb 0.00 in0.0 mm 0.00 in/hr0.0 mm/hr 0.00 in0.0 mm
06:08 PM 73.2°F22.9°C 57.9°F14.4°C 59% - N16091.8 kmh N -- 29.96 in1014.6 mb 0.00 in0.0 mm 0.00 in/hr0.0 mm/hr 0.00 in0.0 mm
06:03 PM 73.5°F23.1°C 58.3°F14.6°C 59% - N16091.8 kmh N -- 29.96 in1014.6 mb 0.00 in0.0 mm 0.00 in/hr0.0 mm/hr 0.00 in0.0 mm
05:58 PM 73.7°F23.2°C 58.4°F14.7°C 59% - N16091.8 kmh N -- 29.96 in1014.6 mb 0.00 in0.0 mm 0.00 in/hr0.0 mm/hr 0.00 in0.0 mm
05:53 PM 73.9°F23.3°C 58.1°F14.5°C 59% - N16091.8 kmh N -- 29.96 in1014.6 mb 0.00 in0.0 mm 0.00 in/hr0.0 mm/hr 0.00 in0.0 mm
05:48 PM 74.1°F23.4°C 58.3°F14.6°C 58% - N16091.8 kmh N -- 29.96 in1014.6 mb 0.00 in0.0 mm 0.00 in/hr0.0 mm/hr 0.00 in0.0 mm
05:43 PM 74.3°F23.5°C 58.5°F14.7°C 58% - N16091.8 kmh N -- 29.96 in1014.6 mb 0.00 in0.0 mm 0.00 in/hr0.0 mm/hr 0.00 in0.0 mm
05:38 PM 74.3°F23.5°C 58.5°F14.7°C 58% - N16091.8 kmh N -- 29.96 in1014.6 mb 0.00 in0.0 mm 0.00 in/hr0.0 mm/hr 0.00 in0.0 mm
05:33 PM 74.4°F23.6°C 58.7°F14.8°C 58% - N16091.8 kmh N -- 29.96 in1014.6 mb 0.00 in0.0 mm 0.00 in/hr0.0 mm/hr 0.00 in0.0 mm
05:28 PM 74.6°F23.7°C 58.8°F14.9°C 58% - N16091.8 kmh N -- 29.96 in1014.6 mb 0.00 in0.0 mm 0.00 in/hr0.0 mm/hr 0.00 in0.0 mm
05:23 PM 74.8°F23.8°C 59.0°F15.0°C 58% - N16091.8 kmh N -- 29.97 in1014.9 mb 0.00 in0.0 mm 0.00 in/hr0.0 mm/hr 0.00 in0.0 mm
05:18 PM 74.8°F23.8°C 59.0°F15.0°C 58% - N16091.8 kmh N -- 29.96 in1014.6 mb 0.00 in0.0 mm 0.00 in/hr0.0 mm/hr 0.00 in0.0 mm
05:13 PM 74.8°F23.8°C 59.0°F15.0°C 58% - N16091.8 kmh N -- 29.96 in1014.6 mb 0.00 in0.0 mm 0.00 in/hr0.0 mm/hr 0.00 in0.0 mm
05:08 PM 74.8°F23.8°C 59.0°F15.0°C 58% - N16091.8 kmh N -- 29.96 in1014.6 mb 0.00 in0.0 mm 0.00 in/hr0.0 mm/hr 0.00 in0.0 mm
05:03 PM 74.8°F23.8°C 59.0°F15.0°C 58% - N16091.8 kmh N -- 29.96 in1014.6 mb 0.00 in0.0 mm 0.00 in/hr0.0 mm/hr 0.00 in0.0 mm
04:58 PM 74.8°F23.8°C 59.0°F15.0°C 58% - N16091.8 kmh N -- 29.96 in1014.6 mb 0.00 in0.0 mm 0.00 in/hr0.0 mm/hr 0.00 in0.0 mm
04:53 PM 74.8°F23.8°C 59.0°F15.0°C 58% - N16091.8 kmh N -- 29.96 in1014.6 mb 0.00 in0.0 mm 0.00 in/hr0.0 mm/hr 0.00 in0.0 mm
04:48 PM 75.0°F23.9°C 59.2°F15.1°C 58% - N16091.8 kmh N -- 29.96 in1014.6 mb 0.00 in0.0 mm 0.00 in/hr0.0 mm/hr 0.00 in0.0 mm
04:43 PM 75.0°F23.9°C 59.2°F15.1°C 58% - N16091.8 kmh N -- 29.96 in1014.6 mb 0.00 in0.0 mm 0.00 in/hr0.0 mm/hr 0.00 in0.0 mm
04:38 PM 74.8°F23.8°C 59.5°F15.3°C 58% - N16091.8 kmh N -- 29.96 in1014.6 mb 0.00 in0.0 mm 0.00 in/hr0.0 mm/hr 0.00 in0.0 mm
04:33 PM 74.8°F23.8°C 59.5°F15.3°C 59% - N16091.8 kmh N -- 29.96 in1014.6 mb 0.00 in0.0 mm 0.00 in/hr0.0 mm/hr 0.00 in0.0 mm
04:28 PM 74.8°F23.8°C 59.5°F15.3°C 59% - N16091.8 kmh N -- 29.96 in1014.6 mb 0.00 in0.0 mm 0.00 in/hr0.0 mm/hr 0.00 in0.0 mm
01:27 PM 67.6°F19.8°C 57.5°F14.2°C 70% - N16091.8 kmh N -- 29.99 in1015.6 mb 0.00 in0.0 mm 0.00 in/hr0.0 mm/hr 0.00 in0.0 mm
01:25 PM 67.4°F19.7°C 57.3°F14.1°C 70% - N16091.8 kmh N -- 29.99 in1015.6 mb 0.00 in0.0 mm 0.00 in/hr0.0 mm/hr 0.00 in0.0 mm
01:20 PM 67.1°F19.5°C 57.4°F14.1°C 71% - N16091.8 kmh N -- 29.99 in1015.6 mb 0.00 in0.0 mm 0.00 in/hr0.0 mm/hr 0.00 in0.0 mm
01:15 PM 66.7°F19.3°C 57.0°F13.9°C 71% - N16091.8 kmh N -- 29.99 in1015.6 mb 0.00 in0.0 mm 0.00 in/hr0.0 mm/hr 0.00 in0.0 mm
01:10 PM 66.3°F19.1°C 56.6°F13.7°C 71% - N16091.8 kmh N -- 29.99 in1015.6 mb 0.00 in0.0 mm 0.00 in/hr0.0 mm/hr 0.00 in0.0 mm
01:05 PM 66.3°F19.1°C 56.6°F13.7°C 71% - N16091.8 kmh N -- 29.99 in1015.6 mb 0.00 in0.0 mm 0.00 in/hr0.0 mm/hr 0.00 in0.0 mm
01:00 PM 65.8°F18.8°C 56.5°F13.6°C 72% - N16091.8 kmh N -- 29.99 in1015.6 mb 0.00 in0.0 mm 0.00 in/hr0.0 mm/hr 0.00 in0.0 mm
12:55 PM 65.4°F18.6°C 56.2°F13.4°C 72% - N16091.8 kmh N -- 30.00 in1015.9 mb 0.00 in0.0 mm 0.00 in/hr0.0 mm/hr 0.00 in0.0 mm
12:50 PM 65.3°F18.5°C 56.0°F13.3°C 72% - N16091.8 kmh N -- 30.00 in1015.9 mb 0.00 in0.0 mm 0.00 in/hr0.0 mm/hr 0.00 in0.0 mm
12:45 PM 65.1°F18.4°C 55.8°F13.2°C 72% - N16091.8 kmh N -- 30.00 in1015.9 mb 0.00 in0.0 mm 0.00 in/hr0.0 mm/hr 0.00 in0.0 mm
12:40 PM 64.7°F18.2°C 55.9°F13.3°C 73% - N16091.8 kmh N -- 30.00 in1015.9 mb 0.00 in0.0 mm 0.00 in/hr0.0 mm/hr 0.00 in0.0 mm
12:35 PM 64.5°F18.1°C 55.7°F13.2°C 73% - N16091.8 kmh N -- 30.00 in1015.9 mb 0.00 in0.0 mm 0.00 in/hr0.0 mm/hr 0.00 in0.0 mm
12:30 PM 64.0°F17.8°C 55.2°F12.9°C 73% - N16091.8 kmh N -- 30.01 in1016.3 mb 0.00 in0.0 mm 0.00 in/hr0.0 mm/hr 0.00 in0.0 mm
12:25 PM 63.6°F17.6°C 55.2°F12.9°C 74% - N16091.8 kmh N -- 30.01 in1016.3 mb 0.00 in0.0 mm 0.00 in/hr0.0 mm/hr 0.00 in0.0 mm
12:20 PM 63.5°F17.5°C 55.0°F12.8°C 74% - N16091.8 kmh N -- 30.01 in1016.3 mb 0.00 in0.0 mm 0.00 in/hr0.0 mm/hr 0.00 in0.0 mm
12:15 PM 63.1°F17.3°C 55.0°F12.8°C 75% - N16091.8 kmh N -- 30.02 in1016.6 mb 0.00 in0.0 mm 0.00 in/hr0.0 mm/hr 0.00 in0.0 mm
12:10 PM 62.7°F17.1°C 55.0°F12.8°C 76% - N16091.8 kmh N -- 30.02 in1016.6 mb 0.00 in0.0 mm 0.00 in/hr0.0 mm/hr 0.00 in0.0 mm
12:05 PM 62.4°F16.9°C 55.0°F12.8°C 77% - N16091.8 kmh N -- 30.01 in1016.3 mb 0.00 in0.0 mm 0.00 in/hr0.0 mm/hr 0.00 in0.0 mm
12:00 PM 62.2°F16.8°C 55.2°F12.9°C 78% - N16091.8 kmh N -- 30.01 in1016.3 mb 0.00 in0.0 mm 0.00 in/hr0.0 mm/hr 0.00 in0.0 mm
11:55 AM 61.7°F16.5°C 55.1°F12.8°C 79% - N16091.8 kmh N -- 30.01 in1016.3 mb 0.00 in0.0 mm 0.00 in/hr0.0 mm/hr 0.00 in0.0 mm
11:50 AM 61.5°F16.4°C 54.9°F12.7°C 79% - N16091.8 kmh N -- 30.02 in1016.6 mb 0.00 in0.0 mm 0.00 in/hr0.0 mm/hr 0.00 in0.0 mm
11:45 AM 61.3°F16.3°C 55.4°F13.0°C 81% - N16091.8 kmh N -- 30.02 in1016.6 mb 0.00 in0.0 mm 0.00 in/hr0.0 mm/hr 0.00 in0.0 mm
11:40 AM 60.8°F16.0°C 55.0°F12.8°C 81% - N16091.8 kmh N -- 30.02 in1016.6 mb 0.00 in0.0 mm 0.00 in/hr0.0 mm/hr 0.00 in0.0 mm
11:35 AM 60.6°F15.9°C 54.8°F12.7°C 81% - N16091.8 kmh N -- 30.01 in1016.3 mb 0.00 in0.0 mm 0.00 in/hr0.0 mm/hr 0.00 in0.0 mm
11:30 AM 60.4°F15.8°C 54.9°F12.7°C 81% - N16091.8 kmh N -- 30.02 in1016.6 mb 0.00 in0.0 mm 0.00 in/hr0.0 mm/hr 0.00 in0.0 mm
11:25 AM 60.0°F15.6°C 54.6°F12.6°C 82% - N16091.8 kmh N -- 30.02 in1016.6 mb 0.00 in0.0 mm 0.00 in/hr0.0 mm/hr 0.00 in0.0 mm
11:20 AM 60.0°F15.6°C 54.6°F12.6°C 82% - N16091.8 kmh N -- 30.02 in1016.6 mb 0.00 in0.0 mm 0.00 in/hr0.0 mm/hr 0.00 in0.0 mm
11:15 AM 59.7°F15.4°C 54.8°F12.7°C 83% - N16091.8 kmh N -- 30.02 in1016.6 mb 0.00 in0.0 mm 0.00 in/hr0.0 mm/hr 0.00 in0.0 mm
11:10 AM 59.7°F15.4°C 54.8°F12.7°C 84% - N16091.8 kmh N -- 30.02 in1016.6 mb 0.00 in0.0 mm 0.00 in/hr0.0 mm/hr 0.00 in0.0 mm
11:05 AM 59.3°F15.2°C 54.5°F12.5°C 84% - N16091.8 kmh N -- 30.02 in1016.6 mb 0.00 in0.0 mm 0.00 in/hr0.0 mm/hr 0.00 in0.0 mm
11:00 AM 59.0°F15.0°C 54.1°F12.3°C 84% - N16091.8 kmh N -- 30.02 in1016.6 mb 0.00 in0.0 mm 0.00 in/hr0.0 mm/hr 0.00 in0.0 mm
10:55 AM 58.2°F14.6°C 53.4°F11.9°C 84% - N16091.8 kmh N -- 30.02 in1016.6 mb 0.00 in0.0 mm 0.00 in/hr0.0 mm/hr 0.00 in0.0 mm
10:50 AM 57.9°F14.4°C 53.0°F11.7°C 84% - N16091.8 kmh N -- 30.02 in1016.6 mb 0.00 in0.0 mm 0.00 in/hr0.0 mm/hr 0.00 in0.0 mm
10:45 AM 57.7°F14.3°C 52.9°F11.6°C 84% - N16091.8 kmh N -- 30.02 in1016.6 mb 0.00 in0.0 mm 0.00 in/hr0.0 mm/hr 0.00 in0.0 mm
10:40 AM 57.3°F14.1°C 52.8°F11.6°C 85% - N16091.8 kmh N -- 30.02 in1016.6 mb 0.00 in0.0 mm 0.00 in/hr0.0 mm/hr 0.00 in0.0 mm
10:35 AM 57.0°F13.9°C 52.5°F11.4°C 85% - N16091.8 kmh N -- 30.02 in1016.6 mb 0.00 in0.0 mm 0.00 in/hr0.0 mm/hr 0.00 in0.0 mm
10:30 AM 56.6°F13.7°C 52.1°F11.2°C 85% - N16091.8 kmh N -- 30.02 in1016.6 mb 0.00 in0.0 mm 0.00 in/hr0.0 mm/hr 0.00 in0.0 mm
10:25 AM 56.1°F13.4°C 51.6°F10.9°C 85% - N16091.8 kmh N -- 30.02 in1016.6 mb 0.00 in0.0 mm 0.00 in/hr0.0 mm/hr 0.00 in0.0 mm
10:20 AM 55.9°F13.3°C 51.4°F10.8°C 85% - N16091.8 kmh N -- 30.02 in1016.6 mb 0.00 in0.0 mm 0.00 in/hr0.0 mm/hr 0.00 in0.0 mm
10:15 AM 55.9°F13.3°C 51.4°F10.8°C 85% - N16091.8 kmh N -- 30.02 in1016.6 mb 0.00 in0.0 mm 0.00 in/hr0.0 mm/hr 0.00 in0.0 mm
10:10 AM 55.7°F13.2°C 51.2°F10.7°C 85% - N16091.8 kmh N -- 30.02 in1016.6 mb 0.00 in0.0 mm 0.00 in/hr0.0 mm/hr 0.00 in0.0 mm
10:05 AM 55.5°F13.1°C 51.0°F10.6°C 85% - N16091.8 kmh N -- 30.02 in1016.6 mb 0.00 in0.0 mm 0.00 in/hr0.0 mm/hr 0.00 in0.0 mm
10:00 AM 55.5°F13.1°C 51.0°F10.6°C 85% - N16091.8 kmh N -- 30.01 in1016.3 mb 0.00 in0.0 mm 0.00 in/hr0.0 mm/hr 0.00 in0.0 mm
09:59 AM 55.5°F13.1°C 51.0°F10.6°C 85% - N16091.8 kmh N -- 30.01 in1016.3 mb 0.00 in0.0 mm 0.00 in/hr0.0 mm/hr 0.00 in0.0 mm
09:54 AM 55.2°F12.9°C 50.7°F10.4°C 85% - N16091.8 kmh N -- 30.01 in1016.3 mb 0.00 in0.0 mm 0.00 in/hr0.0 mm/hr 0.00 in0.0 mm
09:49 AM 55.2°F12.9°C 50.7°F10.4°C 85% - N16091.8 kmh N -- 30.01 in1016.3 mb 0.00 in0.0 mm 0.00 in/hr0.0 mm/hr 0.00 in0.0 mm
09:45 AM 55.0°F12.8°C 50.2°F10.1°C 85% - N16091.8 kmh N -- 30.01 in1016.3 mb 0.00 in0.0 mm 0.00 in/hr0.0 mm/hr 0.00 in0.0 mm
09:44 AM 55.0°F12.8°C 50.2°F10.1°C 85% - N16091.8 kmh N -- 30.01 in1016.3 mb 0.00 in0.0 mm 0.00 in/hr0.0 mm/hr 0.00 in0.0 mm
09:39 AM 55.0°F12.8°C 50.2°F10.1°C 84% - N16091.8 kmh N -- 30.01 in1016.3 mb 0.00 in0.0 mm 0.00 in/hr0.0 mm/hr 0.00 in0.0 mm
09:34 AM 54.6°F12.6°C 50.2°F10.1°C 84% - N16091.8 kmh N -- 30.01 in1016.3 mb 0.00 in0.0 mm 0.00 in/hr0.0 mm/hr 0.00 in0.0 mm
09:29 AM 54.5°F12.5°C 50.0°F10.0°C 85% - N16091.8 kmh N -- 30.01 in1016.3 mb 0.00 in0.0 mm 0.00 in/hr0.0 mm/hr 0.00 in0.0 mm
09:24 AM 54.3°F12.4°C 49.8°F9.9°C 85% - N16091.8 kmh N -- 30.01 in1016.3 mb 0.00 in0.0 mm 0.00 in/hr0.0 mm/hr 0.00 in0.0 mm
09:19 AM 54.1°F12.3°C 49.7°F9.8°C 85% - N16091.8 kmh N -- 30.01 in1016.3 mb 0.00 in0.0 mm 0.00 in/hr0.0 mm/hr 0.00 in0.0 mm
09:14 AM 54.1°F12.3°C 49.7°F9.8°C 85% - N16091.8 kmh N -- 30.01 in1016.3 mb 0.00 in0.0 mm 0.00 in/hr0.0 mm/hr 0.00 in0.0 mm
09:09 AM 53.7°F12.1°C 49.3°F9.6°C 85% - N16091.8 kmh N -- 30.00 in1015.9 mb 0.00 in0.0 mm 0.00 in/hr0.0 mm/hr 0.00 in0.0 mm
09:04 AM 53.7°F12.1°C 49.3°F9.6°C 85% - N16091.8 kmh N -- 30.00 in1015.9 mb 0.00 in0.0 mm 0.00 in/hr0.0 mm/hr 0.00 in0.0 mm
08:59 AM 53.6°F12.0°C 49.1°F9.5°C 85% - N16091.8 kmh N -- 30.00 in1015.9 mb 0.00 in0.0 mm 0.00 in/hr0.0 mm/hr 0.00 in0.0 mm
08:54 AM 53.2°F11.8°C 48.8°F9.3°C 85% - N16091.8 kmh N -- 30.00 in1015.9 mb 0.00 in0.0 mm 0.00 in/hr0.0 mm/hr 0.00 in0.0 mm
08:49 AM 53.0°F11.7°C 48.6°F9.2°C 85% - N16091.8 kmh N -- 30.00 in1015.9 mb 0.00 in0.0 mm 0.00 in/hr0.0 mm/hr 0.00 in0.0 mm
08:44 AM 52.8°F11.6°C 48.4°F9.1°C 85% - N16091.8 kmh N -- 30.00 in1015.9 mb 0.00 in0.0 mm 0.00 in/hr0.0 mm/hr 0.00 in0.0 mm
08:39 AM 52.8°F11.6°C 48.4°F9.1°C 85% - N16091.8 kmh N -- 30.00 in1015.9 mb 0.00 in0.0 mm 0.00 in/hr0.0 mm/hr 0.00 in0.0 mm
08:34 AM 52.7°F11.5°C 48.2°F9.0°C 85% - N16091.8 kmh N -- 29.99 in1015.6 mb 0.00 in0.0 mm 0.00 in/hr0.0 mm/hr 0.00 in0.0 mm
08:29 AM 52.7°F11.5°C 48.2°F9.0°C 85% - N16091.8 kmh N -- 29.99 in1015.6 mb 0.00 in0.0 mm 0.00 in/hr0.0 mm/hr 0.00 in0.0 mm
08:24 AM 52.5°F11.4°C 48.1°F8.9°C 85% - N16091.8 kmh N -- 29.99 in1015.6 mb 0.00 in0.0 mm 0.00 in/hr0.0 mm/hr 0.00 in0.0 mm
08:19 AM 52.5°F11.4°C 48.1°F8.9°C 85% - N16091.8 kmh N -- 29.99 in1015.6 mb 0.00 in0.0 mm 0.00 in/hr0.0 mm/hr 0.00 in0.0 mm
08:14 AM 52.5°F11.4°C 48.1°F8.9°C 85% - N16091.8 kmh N -- 29.99 in1015.6 mb 0.00 in0.0 mm 0.00 in/hr0.0 mm/hr 0.00 in0.0 mm
08:09 AM 52.5°F11.4°C 48.1°F8.9°C 85% - N16091.8 kmh N -- 29.99 in1015.6 mb 0.00 in0.0 mm 0.00 in/hr0.0 mm/hr 0.00 in0.0 mm
08:04 AM 52.3°F11.3°C 47.9°F8.8°C 85% - N16091.8 kmh N -- 29.99 in1015.6 mb 0.00 in0.0 mm 0.00 in/hr0.0 mm/hr 0.00 in0.0 mm
07:59 AM 52.3°F11.3°C 47.9°F8.8°C 85% - N16091.8 kmh N -- 29.98 in1015.2 mb 0.00 in0.0 mm 0.00 in/hr0.0 mm/hr 0.00 in0.0 mm
07:54 AM 52.5°F11.4°C 48.1°F8.9°C 85% - N16091.8 kmh N -- 29.98 in1015.2 mb 0.00 in0.0 mm 0.00 in/hr0.0 mm/hr 0.00 in0.0 mm
07:49 AM 52.5°F11.4°C 48.1°F8.9°C 85% - N16091.8 kmh N -- 29.98 in1015.2 mb 0.00 in0.0 mm 0.00 in/hr0.0 mm/hr 0.00 in0.0 mm
07:44 AM 52.5°F11.4°C 48.1°F8.9°C 85% - N16091.8 kmh N -- 29.98 in1015.2 mb 0.00 in0.0 mm 0.00 in/hr0.0 mm/hr 0.00 in0.0 mm
07:39 AM 52.7°F11.5°C 48.2°F9.0°C 85% - N16091.8 kmh N -- 29.98 in1015.2 mb 0.00 in0.0 mm 0.00 in/hr0.0 mm/hr 0.00 in0.0 mm
07:34 AM 52.7°F11.5°C 48.2°F9.0°C 85% - N16091.8 kmh N -- 29.98 in1015.2 mb 0.00 in0.0 mm 0.00 in/hr0.0 mm/hr 0.00 in0.0 mm
07:29 AM 52.7°F11.5°C 48.2°F9.0°C 85% - N16091.8 kmh N -- 29.98 in1015.2 mb 0.00 in0.0 mm 0.00 in/hr0.0 mm/hr 0.00 in0.0 mm
07:24 AM 52.8°F11.6°C 48.4°F9.1°C 85% - N16091.8 kmh N -- 29.98 in1015.2 mb 0.00 in0.0 mm 0.00 in/hr0.0 mm/hr 0.00 in0.0 mm
07:19 AM 52.7°F11.5°C 48.2°F9.0°C 85% - N16091.8 kmh N -- 29.98 in1015.2 mb 0.00 in0.0 mm 0.00 in/hr0.0 mm/hr 0.00 in0.0 mm
07:14 AM 52.7°F11.5°C 48.2°F9.0°C 85% - N16091.8 kmh N -- 29.98 in1015.2 mb 0.00 in0.0 mm 0.00 in/hr0.0 mm/hr 0.00 in0.0 mm
07:09 AM 52.8°F11.6°C 48.1°F8.9°C 85% - N16091.8 kmh N -- 29.98 in1015.2 mb 0.00 in0.0 mm 0.00 in/hr0.0 mm/hr 0.00 in0.0 mm
07:04 AM 52.8°F11.6°C 48.1°F8.9°C 85% - N16091.8 kmh N -- 29.98 in1015.2 mb 0.00 in0.0 mm 0.00 in/hr0.0 mm/hr 0.00 in0.0 mm
06:59 AM 52.8°F11.6°C 48.1°F8.9°C 85% - N16091.8 kmh N -- 29.98 in1015.2 mb 0.00 in0.0 mm 0.00 in/hr0.0 mm/hr 0.00 in0.0 mm
06:54 AM 52.8°F11.6°C 48.1°F8.9°C 84% - N16091.8 kmh N -- 29.98 in1015.2 mb 0.00 in0.0 mm 0.00 in/hr0.0 mm/hr 0.00 in0.0 mm
06:49 AM 52.8°F11.6°C 48.1°F8.9°C 84% - N16091.8 kmh N -- 29.98 in1015.2 mb 0.00 in0.0 mm 0.00 in/hr0.0 mm/hr 0.00 in0.0 mm
06:44 AM 52.8°F11.6°C 48.1°F8.9°C 84% - N16091.8 kmh N -- 29.98 in1015.2 mb 0.00 in0.0 mm 0.00 in/hr0.0 mm/hr 0.00 in0.0 mm
06:39 AM 53.0°F11.7°C 48.3°F9.1°C 84% - N16091.8 kmh N -- 29.98 in1015.2 mb 0.00 in0.0 mm 0.00 in/hr0.0 mm/hr 0.00 in0.0 mm
06:34 AM 53.0°F11.7°C 48.3°F9.1°C 84% - N16091.8 kmh N -- 29.98 in1015.2 mb 0.00 in0.0 mm 0.00 in/hr0.0 mm/hr 0.00 in0.0 mm
06:29 AM 53.0°F11.7°C 48.3°F9.1°C 84% - N16091.8 kmh N -- 29.98 in1015.2 mb 0.00 in0.0 mm 0.00 in/hr0.0 mm/hr 0.00 in0.0 mm
06:24 AM 53.0°F11.7°C 48.3°F9.1°C 84% - N16091.8 kmh N -- 29.97 in1014.9 mb 0.00 in0.0 mm 0.00 in/hr0.0 mm/hr 0.00 in0.0 mm
06:19 AM 53.2°F11.8°C 48.5°F9.2°C 84% - N16091.8 kmh N -- 29.98 in1015.2 mb 0.00 in0.0 mm 0.00 in/hr0.0 mm/hr 0.00 in0.0 mm
06:14 AM 53.2°F11.8°C 48.5°F9.2°C 84% - N16091.8 kmh N -- 29.98 in1015.2 mb 0.00 in0.0 mm 0.00 in/hr0.0 mm/hr 0.00 in0.0 mm
06:09 AM 53.4°F11.9°C 48.7°F9.3°C 84% - N16091.8 kmh N -- 29.98 in1015.2 mb 0.00 in0.0 mm 0.00 in/hr0.0 mm/hr 0.00 in0.0 mm
06:04 AM 53.4°F11.9°C 48.7°F9.3°C 84% - N16091.8 kmh N -- 29.97 in1014.9 mb 0.00 in0.0 mm 0.00 in/hr0.0 mm/hr 0.00 in0.0 mm
05:59 AM 53.4°F11.9°C 48.7°F9.3°C 84% - N16091.8 kmh N -- 29.97 in1014.9 mb 0.00 in0.0 mm 0.00 in/hr0.0 mm/hr 0.00 in0.0 mm
05:58 AM 53.4°F11.9°C 48.7°F9.3°C 84% - N16091.8 kmh N -- 29.97 in1014.9 mb 0.00 in0.0 mm 0.00 in/hr0.0 mm/hr 0.00 in0.0 mm
05:54 AM 53.4°F11.9°C 48.7°F9.3°C 84% - N16091.8 kmh N -- 29.97 in1014.9 mb 0.00 in0.0 mm 0.00 in/hr0.0 mm/hr 0.00 in0.0 mm
05:53 AM 53.4°F11.9°C 48.7°F9.3°C 84% - N16091.8 kmh N -- 29.97 in1014.9 mb 0.00 in0.0 mm 0.00 in/hr0.0 mm/hr 0.00 in0.0 mm
05:49 AM 53.6°F12.0°C 48.8°F9.3°C 84% - N16091.8 kmh N -- 29.97 in1014.9 mb 0.00 in0.0 mm 0.00 in/hr0.0 mm/hr 0.00 in0.0 mm
05:48 AM 53.6°F12.0°C 48.8°F9.3°C 84% - N16091.8 kmh N -- 29.97 in1014.9 mb 0.00 in0.0 mm 0.00 in/hr0.0 mm/hr 0.00 in0.0 mm
05:43 AM 53.7°F12.1°C 49.0°F9.4°C 84% - N16091.8 kmh N -- 29.97 in1014.9 mb 0.00 in0.0 mm 0.00 in/hr0.0 mm/hr 0.00 in0.0 mm
05:38 AM 53.7°F12.1°C 49.0°F9.4°C 84% - N16091.8 kmh N -- 29.97 in1014.9 mb 0.00 in0.0 mm 0.00 in/hr0.0 mm/hr 0.00 in0.0 mm
05:33 AM 53.7°F12.1°C 49.0°F9.4°C 84% - N16091.8 kmh N -- 29.97 in1014.9 mb 0.00 in0.0 mm 0.00 in/hr0.0 mm/hr 0.00 in0.0 mm
05:28 AM 53.9°F12.2°C 49.2°F9.6°C 84% - N16091.8 kmh N -- 29.96 in1014.6 mb 0.00 in0.0 mm 0.00 in/hr0.0 mm/hr 0.00 in0.0 mm
05:23 AM 53.9°F12.2°C 49.2°F9.6°C 84% - N16091.8 kmh N -- 29.96 in1014.6 mb 0.00 in0.0 mm 0.00 in/hr0.0 mm/hr 0.00 in0.0 mm
05:18 AM 54.1°F12.3°C 49.0°F9.4°C 84% - N16091.8 kmh N -- 29.96 in1014.6 mb 0.00 in0.0 mm 0.00 in/hr0.0 mm/hr 0.00 in0.0 mm
05:13 AM 54.1°F12.3°C 49.0°F9.4°C 84% - N16091.8 kmh N -- 29.96 in1014.6 mb 0.00 in0.0 mm 0.00 in/hr0.0 mm/hr 0.00 in0.0 mm
05:08 AM 54.1°F12.3°C 49.0°F9.4°C 84% - N16091.8 kmh N -- 29.96 in1014.6 mb 0.00 in0.0 mm 0.00 in/hr0.0 mm/hr 0.00 in0.0 mm
05:03 AM 54.1°F12.3°C 49.0°F9.4°C 84% - N16091.8 kmh N -- 29.96 in1014.6 mb 0.00 in0.0 mm 0.00 in/hr0.0 mm/hr 0.00 in0.0 mm
04:58 AM 54.1°F12.3°C 49.0°F9.4°C 84% - N16091.8 kmh N -- 29.96 in1014.6 mb 0.00 in0.0 mm 0.00 in/hr0.0 mm/hr 0.00 in0.0 mm
04:53 AM 54.1°F12.3°C 49.0°F9.4°C 83% - N16091.8 kmh N -- 29.96 in1014.6 mb 0.00 in0.0 mm 0.00 in/hr0.0 mm/hr 0.00 in0.0 mm
04:48 AM 54.1°F12.3°C 49.0°F9.4°C 83% - N16091.8 kmh N -- 29.96 in1014.6 mb 0.00 in0.0 mm 0.00 in/hr0.0 mm/hr 0.00 in0.0 mm
04:43 AM 54.1°F12.3°C 49.0°F9.4°C 83% - N16091.8 kmh N -- 29.96 in1014.6 mb 0.00 in0.0 mm 0.00 in/hr0.0 mm/hr 0.00 in0.0 mm
04:38 AM 54.1°F12.3°C 49.0°F9.4°C 83% - N16091.8 kmh N -- 29.96 in1014.6 mb 0.00 in0.0 mm 0.00 in/hr0.0 mm/hr 0.00 in0.0 mm
04:33 AM 54.1°F12.3°C 49.0°F9.4°C 83% - N16091.8 kmh N -- 29.96 in1014.6 mb 0.00 in0.0 mm 0.00 in/hr0.0 mm/hr 0.00 in0.0 mm
04:28 AM 54.1°F12.3°C 49.0°F9.4°C 83% - N16091.8 kmh N -- 29.96 in1014.6 mb 0.00 in0.0 mm 0.00 in/hr0.0 mm/hr 0.00 in0.0 mm
04:23 AM 54.3°F12.4°C 48.9°F9.4°C 83% - N16091.8 kmh N -- 29.96 in1014.6 mb 0.00 in0.0 mm 0.00 in/hr0.0 mm/hr 0.00 in0.0 mm
04:18 AM 54.3°F12.4°C 48.9°F9.4°C 83% - N16091.8 kmh N -- 29.96 in1014.6 mb 0.00 in0.0 mm 0.00 in/hr0.0 mm/hr 0.00 in0.0 mm
04:13 AM 54.3°F12.4°C 48.9°F9.4°C 82% - N16091.8 kmh N -- 29.96 in1014.6 mb 0.00 in0.0 mm 0.00 in/hr0.0 mm/hr 0.00 in0.0 mm
04:08 AM 54.5°F12.5°C 49.4°F9.7°C 83% - N16091.8 kmh N -- 29.96 in1014.6 mb 0.00 in0.0 mm 0.00 in/hr0.0 mm/hr 0.00 in0.0 mm
04:03 AM 54.6°F12.6°C 49.2°F9.6°C 83% - N16091.8 kmh N -- 29.97 in1014.9 mb 0.00 in0.0 mm 0.00 in/hr0.0 mm/hr 0.00 in0.0 mm
03:58 AM 54.6°F12.6°C 49.2°F9.6°C 83% - N16091.8 kmh N -- 29.97 in1014.9 mb 0.00 in0.0 mm 0.00 in/hr0.0 mm/hr 0.00 in0.0 mm
03:53 AM 54.6°F12.6°C 49.2°F9.6°C 83% - N16091.8 kmh N -- 29.97 in1014.9 mb 0.00 in0.0 mm 0.00 in/hr0.0 mm/hr 0.00 in0.0 mm
03:48 AM 54.6°F12.6°C 49.2°F9.6°C 83% - N16091.8 kmh N -- 29.97 in1014.9 mb 0.00 in0.0 mm 0.00 in/hr0.0 mm/hr 0.00 in0.0 mm
03:43 AM 54.6°F12.6°C 49.2°F9.6°C 82% - N16091.8 kmh N -- 29.97 in1014.9 mb 0.00 in0.0 mm 0.00 in/hr0.0 mm/hr 0.00 in0.0 mm
03:38 AM 55.0°F12.8°C 49.5°F9.7°C 82% - N16091.8 kmh N -- 29.97 in1014.9 mb 0.00 in0.0 mm 0.00 in/hr0.0 mm/hr 0.00 in0.0 mm
03:33 AM 55.0°F12.8°C 49.5°F9.7°C 82% - N16091.8 kmh N -- 29.97 in1014.9 mb 0.00 in0.0 mm 0.00 in/hr0.0 mm/hr 0.00 in0.0 mm
03:28 AM 55.0°F12.8°C 49.5°F9.7°C 82% - N16091.8 kmh N -- 29.97 in1014.9 mb 0.00 in0.0 mm 0.00 in/hr0.0 mm/hr 0.00 in0.0 mm
03:23 AM 55.0°F12.8°C 49.5°F9.7°C 82% - N16091.8 kmh N -- 29.97 in1014.9 mb 0.00 in0.0 mm 0.00 in/hr0.0 mm/hr 0.00 in0.0 mm
03:18 AM 55.2°F12.9°C 49.4°F9.7°C 82% - N16091.8 kmh N -- 29.97 in1014.9 mb 0.00 in0.0 mm 0.00 in/hr0.0 mm/hr 0.00 in0.0 mm
03:13 AM 55.2°F12.9°C 49.4°F9.7°C 82% - N16091.8 kmh N -- 29.98 in1015.2 mb 0.00 in0.0 mm 0.00 in/hr0.0 mm/hr 0.00 in0.0 mm
03:08 AM 55.2°F12.9°C 49.4°F9.7°C 82% - N16091.8 kmh N -- 29.97 in1014.9 mb 0.00 in0.0 mm 0.00 in/hr0.0 mm/hr 0.00 in0.0 mm
03:03 AM 55.4°F13.0°C 49.6°F9.8°C 81% - N16091.8 kmh N -- 29.97 in1014.9 mb 0.00 in0.0 mm 0.00 in/hr0.0 mm/hr 0.00 in0.0 mm
02:58 AM 55.5°F13.1°C 49.7°F9.8°C 81% - N16091.8 kmh N -- 29.98 in1015.2 mb 0.00 in0.0 mm 0.00 in/hr0.0 mm/hr 0.00 in0.0 mm
02:53 AM 55.5°F13.1°C 49.7°F9.8°C 81% - N16091.8 kmh N -- 29.97 in1014.9 mb 0.00 in0.0 mm 0.00 in/hr0.0 mm/hr 0.00 in0.0 mm
02:48 AM 55.5°F13.1°C 49.7°F9.8°C 81% - N16091.8 kmh N -- 29.97 in1014.9 mb 0.00 in0.0 mm 0.00 in/hr0.0 mm/hr 0.00 in0.0 mm
02:43 AM 55.7°F13.2°C 49.9°F9.9°C 81% - N16091.8 kmh N -- 29.97 in1014.9 mb 0.00 in0.0 mm 0.00 in/hr0.0 mm/hr 0.00 in0.0 mm
02:38 AM 55.9°F13.3°C 50.1°F10.1°C 81% - N16091.8 kmh N -- 29.98 in1015.2 mb 0.00 in0.0 mm 0.00 in/hr0.0 mm/hr 0.00 in0.0 mm
02:33 AM 55.9°F13.3°C 50.1°F10.1°C 81% - N16091.8 kmh N -- 29.98 in1015.2 mb 0.00 in0.0 mm 0.00 in/hr0.0 mm/hr 0.00 in0.0 mm
02:28 AM 56.1°F13.4°C 50.3°F10.2°C 81% - N16091.8 kmh N -- 29.98 in1015.2 mb 0.00 in0.0 mm 0.00 in/hr0.0 mm/hr 0.00 in0.0 mm
02:23 AM 56.1°F13.4°C 50.3°F10.2°C 81% - N16091.8 kmh N -- 29.98 in1015.2 mb 0.00 in0.0 mm 0.00 in/hr0.0 mm/hr 0.00 in0.0 mm
02:18 AM 56.1°F13.4°C 50.3°F10.2°C 81% - N16091.8 kmh N -- 29.98 in1015.2 mb 0.00 in0.0 mm 0.00 in/hr0.0 mm/hr 0.00 in0.0 mm
02:13 AM 56.3°F13.5°C 50.5°F10.3°C 81% - N16091.8 kmh N -- 29.98 in1015.2 mb 0.00 in0.0 mm 0.00 in/hr0.0 mm/hr 0.00 in0.0 mm
02:08 AM 56.4°F13.6°C 50.3°F10.2°C 80% - N16091.8 kmh N -- 29.98 in1015.2 mb 0.00 in0.0 mm 0.00 in/hr0.0 mm/hr 0.00 in0.0 mm
02:03 AM 56.4°F13.6°C 50.3°F10.2°C 80% - N16091.8 kmh N -- 29.98 in1015.2 mb 0.00 in0.0 mm 0.00 in/hr0.0 mm/hr 0.00 in0.0 mm
01:58 AM 56.8°F13.8°C 50.7°F10.4°C 80% - N16091.8 kmh N -- 29.98 in1015.2 mb 0.00 in0.0 mm 0.00 in/hr0.0 mm/hr 0.00 in0.0 mm
01:53 AM 56.8°F13.8°C 50.7°F10.4°C 80% - N16091.8 kmh N -- 29.98 in1015.2 mb 0.00 in0.0 mm 0.00 in/hr0.0 mm/hr 0.00 in0.0 mm
01:48 AM 56.8°F13.8°C 50.7°F10.4°C 80% - N16091.8 kmh N -- 29.98 in1015.2 mb 0.00 in0.0 mm 0.00 in/hr0.0 mm/hr 0.00 in0.0 mm
01:43 AM 57.0°F13.9°C 50.9°F10.5°C 80% - N16091.8 kmh N -- 29.98 in1015.2 mb 0.00 in0.0 mm 0.00 in/hr0.0 mm/hr 0.00 in0.0 mm
01:42 AM 57.0°F13.9°C 50.9°F10.5°C 80% - N16091.8 kmh N -- 29.98 in1015.2 mb 0.00 in0.0 mm 0.00 in/hr0.0 mm/hr 0.00 in0.0 mm
01:37 AM 57.0°F13.9°C 50.9°F10.5°C 80% - N16091.8 kmh N -- 29.98 in1015.2 mb 0.00 in0.0 mm 0.00 in/hr0.0 mm/hr 0.00 in0.0 mm
01:32 AM 57.2°F14.0°C 51.0°F10.6°C 80% - N16091.8 kmh N -- 29.98 in1015.2 mb 0.00 in0.0 mm 0.00 in/hr0.0 mm/hr 0.00 in0.0 mm
01:27 AM 57.3°F14.1°C 50.9°F10.5°C 80% - N16091.8 kmh N -- 29.98 in1015.2 mb 0.00 in0.0 mm 0.00 in/hr0.0 mm/hr 0.00 in0.0 mm
01:22 AM 57.3°F14.1°C 50.9°F10.5°C 80% - N16091.8 kmh N -- 29.98 in1015.2 mb 0.00 in0.0 mm 0.00 in/hr0.0 mm/hr 0.00 in0.0 mm
01:17 AM 57.3°F14.1°C 50.9°F10.5°C 80% - N16091.8 kmh N -- 29.98 in1015.2 mb 0.00 in0.0 mm 0.00 in/hr0.0 mm/hr 0.00 in0.0 mm
01:12 AM 57.3°F14.1°C 50.9°F10.5°C 80% - N16091.8 kmh N -- 29.98 in1015.2 mb 0.00 in0.0 mm 0.00 in/hr0.0 mm/hr 0.00 in0.0 mm
01:07 AM 57.3°F14.1°C 50.9°F10.5°C 79% - N16091.8 kmh N -- 29.98 in1015.2 mb 0.00 in0.0 mm 0.00 in/hr0.0 mm/hr 0.00 in0.0 mm
01:02 AM 57.5°F14.2°C 51.0°F10.6°C 79% - N16091.8 kmh N -- 29.98 in1015.2 mb 0.00 in0.0 mm 0.00 in/hr0.0 mm/hr 0.00 in0.0 mm
12:57 AM 57.5°F14.2°C 51.0°F10.6°C 79% - N16091.8 kmh N -- 29.98 in1015.2 mb 0.00 in0.0 mm 0.00 in/hr0.0 mm/hr 0.00 in0.0 mm
12:52 AM 57.3°F14.1°C 50.9°F10.5°C 79% - N16091.8 kmh N -- 29.98 in1015.2 mb 0.00 in0.0 mm 0.00 in/hr0.0 mm/hr 0.00 in0.0 mm
12:47 AM 57.5°F14.2°C 51.0°F10.6°C 79% - N16091.8 kmh N -- 29.99 in1015.6 mb 0.00 in0.0 mm 0.00 in/hr0.0 mm/hr 0.00 in0.0 mm
12:42 AM 57.5°F14.2°C 51.0°F10.6°C 79% - N16091.8 kmh N -- 29.98 in1015.2 mb 0.00 in0.0 mm 0.00 in/hr0.0 mm/hr 0.00 in0.0 mm
12:37 AM 57.7°F14.3°C 51.2°F10.7°C 79% - N16091.8 kmh N -- 29.98 in1015.2 mb 0.00 in0.0 mm 0.00 in/hr0.0 mm/hr 0.00 in0.0 mm
12:32 AM 57.7°F14.3°C 51.2°F10.7°C 79% - N16091.8 kmh N -- 29.99 in1015.6 mb 0.00 in0.0 mm 0.00 in/hr0.0 mm/hr 0.00 in0.0 mm
12:27 AM 57.7°F14.3°C 51.2°F10.7°C 79% - N16091.8 kmh N -- 29.99 in1015.6 mb 0.00 in0.0 mm 0.00 in/hr0.0 mm/hr 0.00 in0.0 mm
12:22 AM 57.9°F14.4°C 51.4°F10.8°C 79% - N16091.8 kmh N -- 29.98 in1015.2 mb 0.00 in0.0 mm 0.00 in/hr0.0 mm/hr 0.00 in0.0 mm
12:17 AM 57.9°F14.4°C 51.4°F10.8°C 79% - N16091.8 kmh N -- 29.98 in1015.2 mb 0.00 in0.0 mm 0.00 in/hr0.0 mm/hr 0.00 in0.0 mm
12:12 AM 58.1°F14.5°C 51.2°F10.7°C 79% - N16091.8 kmh N -- 29.98 in1015.2 mb 0.00 in0.0 mm 0.00 in/hr0.0 mm/hr 0.00 in0.0 mm
12:07 AM 58.1°F14.5°C 51.2°F10.7°C 78% - N16091.8 kmh N -- 29.98 in1015.2 mb 0.00 in0.0 mm 0.00 in/hr0.0 mm/hr 0.00 in0.0 mm
12:02 AM 58.2°F14.6°C 51.4°F10.8°C 78% - N16091.8 kmh N -- 29.99 in1015.6 mb 0.00 in0.0 mm 0.00 in/hr0.0 mm/hr 0.00 in0.0 mm